Time;durP1;ratioP1;P1;durP2;ratioP2;P2;SDS_P1;SDS_P2;PMS_P1;PMS_P2;Temp;Humidity;BMP_temperature;BMP_pressure;BME280_temperature;BME280_humidity;BME280_pressure;Samples;Min_cycle;Max_cycle;Signal;HPM_P1;HPM_P2
2021/06/24 00:00:58;;;;;;;0.60;0.30;;;14.80;99.90;;;;;;4987145;28;20030;-77
2021/06/24 00:03:25;;;;;;;1.45;0.40;;;14.80;99.90;;;;;;4994484;28;20062;-76
2021/06/24 00:05:51;;;;;;;5.45;0.60;;;14.80;99.90;;;;;;4992983;28;20027;-77
2021/06/24 00:08:17;;;;;;;4.72;0.60;;;14.70;99.90;;;;;;4994145;28;20057;-77
2021/06/24 00:10:44;;;;;;;9.13;0.57;;;14.70;99.90;;;;;;4994044;28;20068;-76
2021/06/24 00:13:09;;;;;;;3.92;0.98;;;14.60;99.90;;;;;;4994198;28;20046;-77
2021/06/24 00:15:36;;;;;;;4.40;0.55;;;14.70;99.90;;;;;;4994192;28;20014;-76
2021/06/24 00:18:02;;;;;;;2.97;0.57;;;14.60;99.90;;;;;;4994421;28;20546;-74
2021/06/24 00:20:28;;;;;;;7.03;0.70;;;14.60;99.90;;;;;;4985194;28;20047;-74
2021/06/24 00:22:54;;;;;;;5.05;1.05;;;14.60;99.90;;;;;;4994284;28;20042;-74
2021/06/24 00:25:19;;;;;;;4.22;0.47;;;14.60;99.90;;;;;;4993838;28;20117;-74
2021/06/24 00:27:45;;;;;;;3.35;0.40;;;14.60;99.90;;;;;;4993814;28;20027;-74
2021/06/24 00:30:12;;;;;;;3.53;0.35;;;14.60;99.90;;;;;;4993607;28;20038;-74
2021/06/24 00:32:38;;;;;;;1.73;0.50;;;14.60;99.90;;;;;;4992651;28;20030;-74
2021/06/24 00:35:05;;;;;;;3.17;0.35;;;14.60;99.90;;;;;;4993883;28;20053;-74
2021/06/24 00:37:31;;;;;;;2.65;0.45;;;14.60;99.90;;;;;;4994022;28;20177;-74
2021/06/24 00:39:57;;;;;;;2.80;0.30;;;14.50;99.90;;;;;;4993683;28;20019;-75
2021/06/24 00:42:26;;;;;;;8.48;0.30;;;14.50;99.90;;;;;;4993635;28;20038;-75
2021/06/24 00:44:52;;;;;;;2.35;0.45;;;14.50;99.90;;;;;;4993815;28;20105;-75
2021/06/24 00:47:17;;;;;;;4.03;0.20;;;14.50;99.90;;;;;;4993822;28;20065;-75
2021/06/24 00:49:43;;;;;;;3.50;0.30;;;14.50;99.90;;;;;;4997655;28;20074;-75
2021/06/24 00:52:09;;;;;;;1.63;0.30;;;14.50;99.90;;;;;;4997721;28;20058;-75
2021/06/24 00:54:34;;;;;;;1.60;0.60;;;14.40;99.90;;;;;;4996220;28;20030;-75
2021/06/24 00:57:00;;;;;;;2.75;0.20;;;14.40;99.90;;;;;;4997764;28;20026;-74
2021/06/24 00:59:26;;;;;;;0.40;0.10;;;14.30;99.90;;;;;;4997186;28;20031;-74
2021/06/24 01:01:51;;;;;;;1.25;0.10;;;14.30;99.90;;;;;;4997399;28;20073;-74
2021/06/24 01:04:23;;;;;;;1.08;0.47;;;14.30;99.90;;;;;;4997453;28;20037;-74
2021/06/24 01:06:51;;;;;;;2.40;0.20;;;14.30;99.90;;;;;;4997667;28;20392;-75
2021/06/24 01:09:17;;;;;;;1.95;0.30;;;14.30;99.90;;;;;;4997244;28;20026;-75
2021/06/24 01:11:43;;;;;;;2.97;0.13;;;14.20;99.90;;;;;;4980043;28;20077;-75
2021/06/24 01:14:09;;;;;;;1.40;0.68;;;14.20;99.90;;;;;;4997577;28;20022;-75
2021/06/24 01:16:36;;;;;;;4.20;0.30;;;14.20;99.90;;;;;;4997459;28;20058;-75
2021/06/24 01:19:02;;;;;;;2.53;0.70;;;14.20;99.90;;;;;;4995735;28;20018;-75
2021/06/24 01:21:28;;;;;;;1.55;0.10;;;14.20;99.90;;;;;;4980864;28;20049;-75
2021/06/24 01:23:53;;;;;;;2.22;0.55;;;14.20;99.90;;;;;;4997042;28;20035;-75
2021/06/24 01:26:19;;;;;;;3.00;0.32;;;14.20;99.90;;;;;;4997136;28;20102;-75
2021/06/24 01:28:45;;;;;;;1.10;0.20;;;14.20;99.90;;;;;;4997046;28;20030;-75
2021/06/24 01:31:11;;;;;;;3.42;0.10;;;14.10;99.90;;;;;;4996935;28;20037;-75
2021/06/24 01:33:37;;;;;;;1.58;0.43;;;14.10;99.90;;;;;;4997276;28;20022;-75
2021/06/24 01:36:05;;;;;;;2.90;0.20;;;14.20;99.90;;;;;;4997156;28;20384;-75
2021/06/24 01:38:31;;;;;;;2.47;0.10;;;14.10;99.90;;;;;;4995596;28;20033;-75
2021/06/24 01:40:57;;;;;;;3.33;0.20;;;14.10;99.90;;;;;;4996476;28;20022;-75
2021/06/24 01:43:23;;;;;;;1.10;0.30;;;14.10;99.90;;;;;;4996919;28;20046;-75
2021/06/24 01:45:54;;;;;;;3.05;0.10;;;14.10;99.90;;;;;;4996766;28;20365;-75
2021/06/24 01:48:20;;;;;;;1.40;0.25;;;14.00;99.90;;;;;;4996622;28;20029;-74
2021/06/24 01:50:47;;;;;;;3.35;0.40;;;14.00;99.90;;;;;;4996615;28;20085;-72
2021/06/24 01:53:13;;;;;;;2.50;0.20;;;14.10;99.90;;;;;;4996951;28;20509;-72
2021/06/24 01:55:40;;;;;;;1.63;0.28;;;14.10;99.90;;;;;;4979297;28;20061;-72
2021/06/24 01:58:08;;;;;;;2.65;0.25;;;14.10;99.90;;;;;;4996539;28;20481;-72
2021/06/24 02:00:34;;;;;;;4.18;0.17;;;14.60;99.90;;;;;;4996066;28;20102;-72
2021/06/24 02:03:03;;;;;;;3.80;0.13;;;14.00;99.90;;;;;;4996558;28;20084;-74
2021/06/24 02:05:29;;;;;;;;;;;14.00;99.90;;;;;;4996897;28;20077;-72
2021/06/24 02:07:54;;;;;;;1.75;0.10;;;14.00;99.90;;;;;;4996060;28;19906;-72
2021/06/24 02:10:20;;;;;;;2.50;0.17;;;13.90;99.90;;;;;;4996412;28;20173;-72
2021/06/24 02:12:46;;;;;;;9.35;0.20;;;13.90;99.90;;;;;;4996686;28;20022;-74
2021/06/24 02:15:13;;;;;;;2.17;0.20;;;13.90;99.90;;;;;;4996209;28;20109;-72
2021/06/24 02:17:39;;;;;;;3.00;0.28;;;13.90;99.90;;;;;;4996296;28;20034;-72
2021/06/24 02:20:10;;;;;;;0.35;0.10;;;13.80;99.90;;;;;;4996281;28;20027;-72
2021/06/24 02:22:36;;;;;;;1.42;0.25;;;13.80;99.90;;;;;;4992337;28;20026;-72
2021/06/24 02:25:03;;;;;;;2.05;0.20;;;13.80;99.90;;;;;;4996137;28;20041;-72
2021/06/24 02:27:29;;;;;;;0.70;0.20;;;13.80;99.90;;;;;;4996310;28;20022;-72
2021/06/24 02:29:55;;;;;;;1.33;0.40;;;13.80;99.90;;;;;;4996042;28;20480;-71
2021/06/24 02:32:20;;;;;;;0.30;0.10;;;13.80;99.90;;;;;;4996131;28;20030;-74
2021/06/24 02:34:47;;;;;;;0.88;0.10;;;13.80;99.90;;;;;;4996015;28;20435;-74
2021/06/24 02:37:14;;;;;;;0.45;0.05;;;13.80;99.90;;;;;;4995776;28;20383;-74
2021/06/24 02:39:39;;;;;;;0.80;0.57;;;13.80;99.90;;;;;;4978408;28;20030;-74
2021/06/24 02:42:05;;;;;;;1.42;0.35;;;13.80;99.90;;;;;;5015023;23;20458;-74
2021/06/24 02:44:31;;;;;;;2.78;0.25;;;13.80;99.90;;;;;;5035122;28;20033;-74
2021/06/24 02:46:57;;;;;;;1.95;0.20;;;13.80;99.90;;;;;;5017292;28;20390;-74
2021/06/24 02:49:22;;;;;;;4.25;0.22;;;13.70;99.90;;;;;;5020744;28;20158;-74
2021/06/24 02:51:48;;;;;;;1.17;0.15;;;13.70;99.90;;;;;;5014973;28;20030;-74
2021/06/24 02:54:17;;;;;;;1.92;0.80;;;13.70;99.90;;;;;;5014511;28;20069;-72
2021/06/24 02:56:44;;;;;;;2.92;0.15;;;13.70;99.90;;;;;;5015492;28;20030;-72
2021/06/24 02:59:10;;;;;;;3.20;0.20;;;13.80;99.90;;;;;;4982845;28;20022;-72
2021/06/24 03:01:37;;;;;;;5.22;0.30;;;13.70;99.90;;;;;;5010811;28;20076;-72
2021/06/24 03:04:04;;;;;;;0.55;0.10;;;13.70;99.90;;;;;;4997404;28;20030;-72
2021/06/24 03:06:30;;;;;;;3.03;0.52;;;13.70;99.90;;;;;;5014990;28;20113;-72
2021/06/24 03:08:56;;;;;;;0.88;0.63;;;13.70;99.90;;;;;;4997263;28;20119;-72
2021/06/24 03:11:21;;;;;;;1.75;0.43;;;13.60;99.90;;;;;;5014799;28;20022;-72
2021/06/24 03:13:48;;;;;;;1.08;0.30;;;13.70;99.90;;;;;;5007203;28;20030;-72
2021/06/24 03:16:14;;;;;;;1.17;0.35;;;13.60;99.90;;;;;;4977830;28;20062;-72
2021/06/24 03:18:40;;;;;;;1.95;0.32;;;13.70;99.90;;;;;;4995292;28;20042;-72
2021/06/24 03:21:05;;;;;;;3.85;0.35;;;13.70;99.90;;;;;;4995298;28;20029;-72
2021/06/24 03:23:31;;;;;;;2.17;0.20;;;13.70;99.90;;;;;;4995120;28;20076;-72
2021/06/24 03:25:57;;;;;;;6.10;0.30;;;13.70;99.90;;;;;;4998647;28;20033;-72
2021/06/24 03:28:23;;;;;;;1.58;0.45;;;13.70;99.90;;;;;;5014852;28;20033;-72
2021/06/24 03:30:49;;;;;;;2.35;0.70;;;13.70;99.90;;;;;;4996688;28;20044;-72
2021/06/24 03:33:15;;;;;;;1.23;0.10;;;13.70;99.90;;;;;;5014458;28;20030;-72
2021/06/24 03:35:42;;;;;;;2.70;0.32;;;13.70;99.90;;;;;;5014392;28;20026;-72
2021/06/24 03:38:07;;;;;;;1.85;0.38;;;13.70;99.90;;;;;;5014408;28;20060;-72
2021/06/24 03:40:33;;;;;;;2.85;0.20;;;13.70;99.90;;;;;;5012929;28;20054;-72
2021/06/24 03:42:58;;;;;;;3.90;0.60;;;13.70;99.90;;;;;;4996587;28;20069;-73
2021/06/24 03:45:24;;;;;;;0.98;0.28;;;13.70;99.90;;;;;;4995576;28;20442;-72
2021/06/24 03:47:49;;;;;;;3.05;0.50;;;13.70;99.90;;;;;;5014061;28;20026;-71
2021/06/24 03:50:15;;;;;;;1.63;0.20;;;13.70;99.90;;;;;;5014114;28;20033;-71
2021/06/24 03:52:41;;;;;;;2.85;0.35;;;13.70;99.90;;;;;;5014200;28;20420;-73
2021/06/24 03:55:08;;;;;;;8.50;1.02;;;13.70;99.90;;;;;;5001057;28;20030;-72
2021/06/24 03:57:34;;;;;;;3.92;0.52;;;13.70;99.90;;;;;;4994361;28;20026;-72
2021/06/24 04:00:00;;;;;;;2.72;0.52;;;13.60;99.90;;;;;;4994176;28;20018;-72
2021/06/24 04:02:26;;;;;;;5.18;0.95;;;13.60;99.90;;;;;;4976892;28;20019;-72
2021/06/24 04:04:52;;;;;;;3.58;0.50;;;13.60;99.90;;;;;;4997075;28;20026;-72
2021/06/24 04:07:19;;;;;;;4.28;0.43;;;13.60;99.90;;;;;;5013900;28;20415;-71
2021/06/24 04:09:44;;;;;;;2.88;0.30;;;13.60;99.90;;;;;;4995509;28;20511;-72
2021/06/24 04:12:10;;;;;;;3.08;0.30;;;13.60;99.90;;;;;;4976764;28;20023;-71
2021/06/24 04:14:36;;;;;;;3.35;0.20;;;13.60;99.90;;;;;;4976613;28;20031;-71
2021/06/24 04:17:01;;;;;;;2.25;0.40;;;13.60;99.90;;;;;;4994203;28;20471;-71
2021/06/24 04:19:27;;;;;;;4.00;0.20;;;13.60;99.90;;;;;;4994086;28;20080;-71
2021/06/24 04:21:53;;;;;;;1.52;0.50;;;13.60;99.90;;;;;;4996258;28;20101;-72
2021/06/24 04:24:18;;;;;;;4.13;0.68;;;13.60;99.90;;;;;;5012959;28;20113;-72
2021/06/24 04:26:44;;;;;;;2.47;0.45;;;13.60;99.90;;;;;;5013409;28;20464;-72
2021/06/24 04:29:09;;;;;;;2.63;0.30;;;13.70;99.90;;;;;;5013488;28;20076;-72
2021/06/24 04:31:35;;;;;;;2.15;0.20;;;13.70;99.90;;;;;;5013828;28;20034;-72
2021/06/24 04:34:01;;;;;;;1.20;0.57;;;13.70;99.90;;;;;;5013364;28;20087;-72
2021/06/24 04:36:26;;;;;;;2.75;0.40;;;13.70;99.90;;;;;;5006294;28;20113;-72
2021/06/24 04:38:52;;;;;;;2.67;0.20;;;13.70;99.90;;;;;;4993825;28;20034;-72
2021/06/24 04:41:18;;;;;;;5.35;0.60;;;13.70;99.90;;;;;;4976371;28;20026;-72
2021/06/24 04:43:44;;;;;;;1.95;0.40;;;13.70;99.90;;;;;;4993605;28;20030;-72
2021/06/24 04:46:09;;;;;;;5.57;0.98;;;13.70;99.90;;;;;;4994019;28;20043;-72
2021/06/24 04:48:35;;;;;;;0.35;0.20;;;13.70;99.90;;;;;;4993960;28;20049;-72
2021/06/24 04:51:00;;;;;;;3.30;0.50;;;13.80;99.90;;;;;;4987350;28;20032;-72
2021/06/24 04:53:26;;;;;;;2.15;0.30;;;13.70;99.90;;;;;;4995691;28;20056;-72
2021/06/24 04:55:51;;;;;;;1.17;0.25;;;13.80;99.90;;;;;;5012861;28;20080;-72
2021/06/24 04:58:17;;;;;;;1.05;0.25;;;13.70;99.90;;;;;;5013448;28;20475;-72
2021/06/24 05:00:43;;;;;;;1.65;0.30;;;13.80;99.90;;;;;;5013591;28;20022;-72
2021/06/24 05:03:11;;;;;;;3.78;0.88;;;13.70;99.90;;;;;;4994196;28;20536;-72
2021/06/24 05:05:38;;;;;;;1.08;0.20;;;13.80;99.90;;;;;;4993629;28;20039;-72
2021/06/24 05:08:17;;;;;;;2.70;0.28;;;13.80;99.90;;;;;;4993328;28;20364;-72
2021/06/24 05:10:43;;;;;;;;;;;13.80;99.90;;;;;;4997055;28;20079;-72
2021/06/24 05:13:09;;;;;;;1.45;0.40;;;13.80;99.90;;;;;;5012803;28;20325;-72
2021/06/24 05:15:35;;;;;;;3.25;0.55;;;13.90;99.90;;;;;;4995701;28;20033;-72
2021/06/24 05:18:04;;;;;;;2.67;0.40;;;13.90;99.90;;;;;;5004725;28;20026;-72
2021/06/24 05:20:30;;;;;;;3.08;0.50;;;14.00;99.90;;;;;;4993808;28;20031;-72
2021/06/24 05:22:56;;;;;;;1.40;0.35;;;14.00;99.90;;;;;;4975907;28;20029;-72
2021/06/24 05:25:22;;;;;;;1.75;0.75;;;14.00;99.90;;;;;;4993578;28;20376;-72
2021/06/24 05:27:47;;;;;;;5.95;0.30;;;14.00;99.90;;;;;;4975828;28;20479;-75
2021/06/24 05:30:13;;;;;;;2.97;0.65;;;14.10;99.90;;;;;;4986335;28;20029;-73
2021/06/24 05:32:40;;;;;;;2.85;0.52;;;14.20;99.90;;;;;;5012478;28;20451;-73
2021/06/24 05:35:07;;;;;;;2.15;0.50;;;14.20;99.90;;;;;;4996077;28;20022;-73
2021/06/24 05:37:33;;;;;;;2.25;0.30;;;14.30;99.90;;;;;;4999196;28;20053;-72
2021/06/24 05:39:59;;;;;;;2.60;0.30;;;14.30;99.90;;;;;;5016228;28;20121;-72
2021/06/24 05:42:24;;;;;;;4.60;0.95;;;14.40;99.90;;;;;;5031193;28;20033;-72
2021/06/24 05:44:50;;;;;;;4.30;0.20;;;14.50;99.90;;;;;;5036173;28;20030;-72
2021/06/24 05:47:16;;;;;;;4.47;1.00;;;14.50;99.90;;;;;;5001159;28;20030;-72
2021/06/24 05:49:41;;;;;;;4.45;1.35;;;14.60;99.90;;;;;;4996771;28;20105;-72
2021/06/24 05:52:07;;;;;;;5.68;0.65;;;14.70;99.90;;;;;;4999809;28;20053;-72
2021/06/24 05:54:32;;;;;;;4.82;1.35;;;14.80;99.90;;;;;;5016090;28;20030;-72
2021/06/24 05:57:01;;;;;;;0.80;0.38;;;14.80;99.90;;;;;;5014907;28;20084;-72
2021/06/24 05:59:27;;;;;;;4.85;0.68;;;14.70;99.90;;;;;;4998682;28;20475;-72
2021/06/24 06:01:52;;;;;;;1.63;0.63;;;14.80;99.90;;;;;;4998527;28;20033;-72
2021/06/24 06:04:18;;;;;;;2.38;0.65;;;14.80;99.90;;;;;;5016312;28;20037;-73
2021/06/24 06:06:44;;;;;;;0.82;0.30;;;15.00;99.90;;;;;;5016174;28;20499;-73
2021/06/24 06:09:10;;;;;;;0.60;0.30;;;15.10;99.90;;;;;;5016198;28;20018;-74
2021/06/24 06:11:36;;;;;;;3.40;0.40;;;15.20;99.90;;;;;;5016107;28;20026;-74
2021/06/24 06:14:02;;;;;;;4.03;0.38;;;15.30;99.90;;;;;;4998349;28;20030;-73
2021/06/24 06:16:27;;;;;;;1.30;0.32;;;15.50;99.90;;;;;;5015934;28;20025;-74
2021/06/24 06:18:54;;;;;;;6.60;0.82;;;15.50;99.90;;;;;;4998269;28;20026;-74
2021/06/24 06:21:20;;;;;;;3.72;0.47;;;15.60;99.90;;;;;;5016187;28;20022;-74
2021/06/24 06:23:46;;;;;;;1.58;0.30;;;15.70;99.90;;;;;;4998294;28;20022;-73
2021/06/24 06:26:11;;;;;;;2.10;0.25;;;15.80;99.90;;;;;;4998248;28;20356;-73
2021/06/24 06:28:37;;;;;;;3.78;0.20;;;15.70;99.90;;;;;;4998147;28;20084;-74
2021/06/24 06:31:03;;;;;;;4.70;0.20;;;15.90;99.90;;;;;;5015823;28;20022;-74
2021/06/24 06:33:29;;;;;;;0.88;0.20;;;16.00;99.90;;;;;;5015630;28;20029;-73
2021/06/24 06:35:55;;;;;;;1.10;0.20;;;16.20;99.90;;;;;;4998103;28;20495;-74
2021/06/24 06:38:22;;;;;;;1.90;0.20;;;16.30;99.90;;;;;;5015630;28;20038;-74
2021/06/24 06:40:49;;;;;;;1.23;0.10;;;16.40;99.90;;;;;;5015553;28;20026;-74
2021/06/24 06:43:15;;;;;;;1.63;0.30;;;16.50;99.90;;;;;;5015790;28;20029;-74
2021/06/24 06:45:44;;;;;;;2.17;0.20;;;16.70;99.90;;;;;;5015141;28;20029;-74
2021/06/24 06:48:10;;;;;;;3.20;0.20;;;16.70;99.90;;;;;;5015667;28;20037;-74
2021/06/24 06:50:37;;;;;;;0.45;0.20;;;16.90;99.90;;;;;;5015409;28;20395;-74
2021/06/24 06:53:02;;;;;;;2.50;0.10;;;17.00;99.90;;;;;;4997720;28;20022;-74
2021/06/24 06:55:28;;;;;;;2.75;0.10;;;16.90;99.90;;;;;;5015351;28;20554;-74
2021/06/24 06:57:58;;;;;;;1.75;0.05;;;17.00;99.90;;;;;;5015758;28;20467;-74
2021/06/24 07:00:24;;;;;;;2.20;0.52;;;17.00;99.90;;;;;;5015234;28;20029;-73
2021/06/24 07:02:50;;;;;;;2.17;0.20;;;17.10;99.90;;;;;;5015167;28;20390;-74
2021/06/24 07:05:16;;;;;;;1.52;0.10;;;17.20;99.90;;;;;;5015181;28;20104;-74
2021/06/24 07:07:42;;;;;;;2.17;0.10;;;17.20;99.90;;;;;;5014937;28;20110;-74
2021/06/24 07:10:08;;;;;;;2.50;0.13;;;17.20;99.90;;;;;;5014950;28;20018;-74
2021/06/24 07:12:33;;;;;;;1.27;0.08;;;17.30;99.90;;;;;;5015164;28;20077;-74
2021/06/24 07:14:59;;;;;;;2.17;0.03;;;17.40;99.90;;;;;;5015018;28;20072;-74
2021/06/24 07:17:25;;;;;;;1.35;0.17;;;17.50;99.90;;;;;;5014856;28;20022;-74
2021/06/24 07:19:51;;;;;;;2.30;0.38;;;17.60;99.90;;;;;;4997241;28;20018;-74
2021/06/24 07:22:16;;;;;;;1.08;0.28;;;17.40;99.90;;;;;;4997239;28;20451;-74
2021/06/24 07:24:42;;;;;;;1.75;0.35;;;17.50;99.90;;;;;;5014688;28;20032;-74
2021/06/24 07:27:07;;;;;;;1.00;0.17;;;17.60;99.90;;;;;;5014713;28;20053;-74
2021/06/24 07:29:33;;;;;;;0.00;0.00;;;17.70;99.90;;;;;;5014865;28;20026;-74
2021/06/24 07:31:58;;;;;;;0.22;0.00;;;17.80;99.90;;;;;;5014621;28;20076;-74
2021/06/24 07:34:24;;;;;;;2.00;0.20;;;17.80;99.90;;;;;;5014718;28;20040;-76
2021/06/24 07:36:50;;;;;;;1.70;0.20;;;18.00;99.90;;;;;;5014493;28;20103;-76
2021/06/24 07:39:16;;;;;;;1.63;0.00;;;18.10;99.90;;;;;;5014485;28;20088;-77
2021/06/24 07:41:41;;;;;;;4.38;0.35;;;18.20;99.90;;;;;;5014372;28;20092;-76
2021/06/24 07:44:07;;;;;;;2.08;0.05;;;18.20;99.90;;;;;;5014677;28;20109;-76
2021/06/24 07:46:33;;;;;;;1.92;0.10;;;18.20;99.90;;;;;;5014561;28;20029;-76
2021/06/24 07:48:58;;;;;;;2.45;0.03;;;18.30;99.90;;;;;;5014207;28;20113;-74
2021/06/24 07:51:24;;;;;;;1.88;0.03;;;18.40;99.90;;;;;;5014434;28;20101;-75
2021/06/24 07:53:50;;;;;;;0.13;0.10;;;18.50;99.90;;;;;;4996533;28;20018;-74
2021/06/24 07:56:16;;;;;;;1.52;0.57;;;18.40;99.60;;;;;;5014258;28;20032;-74
2021/06/24 07:58:42;;;;;;;1.55;0.08;;;18.30;99.90;;;;;;5013670;28;20018;-74
2021/06/24 08:01:08;;;;;;;2.50;0.10;;;18.40;99.90;;;;;;5014176;28;20022;-74
2021/06/24 08:03:35;;;;;;;4.53;0.40;;;18.50;99.90;;;;;;4996559;28;20025;-74
2021/06/24 08:06:01;;;;;;;3.00;0.70;;;18.60;99.10;;;;;;5014007;28;20104;-74
2021/06/24 08:08:27;;;;;;;2.17;0.13;;;18.70;99.00;;;;;;5014171;28;20018;-74
2021/06/24 08:10:53;;;;;;;1.13;0.10;;;18.90;99.20;;;;;;4996356;28;20368;-74
2021/06/24 08:13:19;;;;;;;2.65;0.47;;;18.90;99.20;;;;;;5013820;28;20071;-74
2021/06/24 08:15:45;;;;;;;0.88;0.32;;;19.10;98.50;;;;;;5013879;28;20037;-75
2021/06/24 08:18:10;;;;;;;0.90;0.38;;;19.10;95.40;;;;;;4996183;28;20028;-74
2021/06/24 08:20:36;;;;;;;4.55;0.35;;;18.90;97.00;;;;;;5013812;28;20058;-74
2021/06/24 08:23:01;;;;;;;1.55;0.55;;;18.90;98.60;;;;;;5014463;28;20034;-74
2021/06/24 08:25:27;;;;;;;1.45;0.20;;;19.00;98.10;;;;;;4996141;28;20108;-74
2021/06/24 08:27:53;;;;;;;1.80;0.10;;;19.10;97.50;;;;;;5016621;28;20045;-74
2021/06/24 08:30:20;;;;;;;0.28;0.00;;;19.00;98.50;;;;;;4999072;28;20390;-73
2021/06/24 08:32:46;;;;;;;1.13;0.17;;;19.20;97.50;;;;;;5000649;28;20029;-73
2021/06/24 08:35:12;;;;;;;0.80;0.00;;;19.20;96.60;;;;;;5018339;28;20021;-73
2021/06/24 08:37:38;;;;;;;0.75;0.00;;;19.30;97.30;;;;;;5018409;28;20076;-73
2021/06/24 08:40:06;;;;;;;1.85;0.22;;;19.40;95.40;;;;;;5017811;28;20022;-73
2021/06/24 08:42:33;;;;;;;2.67;0.32;;;19.40;94.70;;;;;;5017666;28;20030;-73
2021/06/24 08:45:01;;;;;;;4.47;0.80;;;19.50;95.20;;;;;;5017894;28;20080;-73
2021/06/24 08:47:29;;;;;;;1.00;0.00;;;19.60;95.70;;;;;;5017800;28;20022;-73
2021/06/24 08:49:56;;;;;;;3.05;0.30;;;19.70;95.40;;;;;;5000118;28;20076;-73
2021/06/24 08:52:22;;;;;;;4.53;0.20;;;19.80;95.30;;;;;;5018293;28;20456;-73
2021/06/24 08:54:47;;;;;;;3.35;0.98;;;19.90;95.20;;;;;;5018421;28;20076;-73
2021/06/24 08:57:14;;;;;;;2.05;0.10;;;19.90;93.90;;;;;;5017778;28;20034;-73
2021/06/24 08:59:40;;;;;;;5.22;0.40;;;19.50;93.00;;;;;;5017476;28;20394;-73
2021/06/24 09:02:09;;;;;;;1.63;0.10;;;19.50;95.00;;;;;;5001065;28;20056;-73
2021/06/24 09:04:35;;;;;;;4.95;0.32;;;19.60;96.90;;;;;;5017739;28;20029;-74
2021/06/24 09:07:12;;;;;;;3.40;0.50;;;21.60;96.60;;;;;;4999863;28;20472;-74
2021/06/24 09:09:48;;;;;;;2.13;0.30;;;20.00;95.80;;;;;;5019484;28;20033;-74
2021/06/24 09:12:13;;;;;;;4.00;0.00;;;20.10;95.00;;;;;;5003501;28;20041;-74
2021/06/24 09:14:44;;;;;;;1.23;0.30;;;20.20;93.90;;;;;;5021416;28;20549;-74
2021/06/24 09:17:11;;;;;;;3.13;0.10;;;20.30;93.90;;;;;;5020838;28;20022;-74
2021/06/24 09:19:39;;;;;;;2.85;0.30;;;20.30;95.20;;;;;;5021669;28;20506;-74
2021/06/24 09:22:08;;;;;;;1.33;0.10;;;20.50;94.50;;;;;;5021270;28;20072;-74
2021/06/24 09:24:41;;;;;;;3.63;0.43;;;20.40;93.50;;;;;;5004245;28;20472;-74
2021/06/24 09:27:13;;;;;;;1.60;0.10;;;20.30;93.20;;;;;;5021075;28;20478;-74
2021/06/24 09:29:38;;;;;;;2.92;0.00;;;20.30;91.30;;;;;;5020966;28;20030;-74
2021/06/24 09:32:04;;;;;;;3.13;0.30;;;20.10;91.70;;;;;;5021467;28;20033;-74
2021/06/24 09:34:29;;;;;;;1.10;0.22;;;20.10;91.50;;;;;;5020526;28;20036;-74
2021/06/24 09:37:00;;;;;;;0.95;0.28;;;19.90;92.20;;;;;;5021040;28;20018;-74
2021/06/24 09:39:29;;;;;;;2.95;0.10;;;20.00;93.40;;;;;;5020912;28;20026;-73
2021/06/24 09:42:05;;;;;;;1.50;0.28;;;20.10;92.70;;;;;;5020905;28;20114;-74
2021/06/24 09:44:33;;;;;;;3.70;0.22;;;20.30;91.20;;;;;;5020472;28;20108;-74
2021/06/24 09:47:00;;;;;;;0.40;0.10;;;20.50;90.50;;;;;;5020698;28;20030;-74
2021/06/24 09:49:34;;;;;;;5.40;0.85;;;20.50;91.50;;;;;;5020656;28;20101;-74
2021/06/24 09:52:02;;;;;;;3.28;0.20;;;20.30;88.20;;;;;;5020789;28;20040;-74
2021/06/24 09:54:41;;;;;;;0.93;0.20;;;20.10;90.40;;;;;;5002639;28;20030;-74
2021/06/24 09:57:07;;;;;;;;;;;20.00;89.50;;;;;;5021539;28;20022;-74
2021/06/24 09:59:39;;;;;;;3.70;0.30;;;19.90;91.50;;;;;;5020302;28;19913;-74
2021/06/24 10:02:12;;;;;;;2.65;0.30;;;20.10;91.90;;;;;;5020075;28;20014;-74
2021/06/24 10:04:40;;;;;;;2.78;0.30;;;20.20;91.60;;;;;;5020983;28;20022;-74
2021/06/24 10:07:09;;;;;;;1.63;0.10;;;20.50;90.80;;;;;;5020655;28;20034;-74
2021/06/24 10:09:38;;;;;;;1.67;0.10;;;20.60;90.50;;;;;;5020984;28;20364;-74
2021/06/24 10:12:06;;;;;;;0.70;0.13;;;20.70;90.50;;;;;;5021134;28;20025;-74
2021/06/24 10:14:31;;;;;;;4.10;0.13;;;20.90;90.50;;;;;;5020379;28;20030;-74
2021/06/24 10:16:59;;;;;;;3.97;0.30;;;21.10;91.20;;;;;;5020631;28;20033;-74
2021/06/24 10:19:28;;;;;;;4.03;0.30;;;21.00;91.30;;;;;;5002903;28;20042;-74
2021/06/24 10:22:00;;;;;;;2.83;0.10;;;21.50;90.70;;;;;;5019443;28;20104;-74
2021/06/24 10:25:06;;;;;;;3.20;0.28;;;21.00;89.60;;;;;;5019704;28;20506;-76
2021/06/24 10:27:34;;;;;;;3.50;0.30;;;21.00;90.70;;;;;;4921190;29;20034;-73
2021/06/24 10:30:13;;;;;;;1.30;0.50;;;21.10;88.50;;;;;;5004755;28;20418;-74
2021/06/24 10:32:40;;;;;;;2.33;0.32;;;21.10;91.90;;;;;;5020540;28;20113;-75
2021/06/24 10:35:24;;;;;;;1.55;0.30;;;21.30;91.50;;;;;;5002503;28;20026;-74
2021/06/24 10:37:50;;;;;;;0.77;0.13;;;21.20;86.80;;;;;;5002788;28;20072;-74
2021/06/24 10:40:25;;;;;;;1.13;0.20;;;21.00;84.90;;;;;;5019975;28;20045;-74
2021/06/24 10:42:53;;;;;;;0.95;0.28;;;20.90;90.90;;;;;;5020117;28;20467;-74
2021/06/24 10:45:20;;;;;;;1.45;0.68;;;20.80;89.70;;;;;;5002427;28;20018;-74
2021/06/24 10:47:46;;;;;;;1.00;0.30;;;20.80;84.50;;;;;;5019724;28;20034;-74
2021/06/24 10:50:32;;;;;;;2.25;0.30;;;20.90;88.40;;;;;;5001518;28;20433;-74
2021/06/24 10:52:59;;;;;;;2.30;0.20;;;21.10;87.80;;;;;;5001351;28;20475;-74
2021/06/24 10:55:35;;;;;;;0.85;0.22;;;21.20;86.00;;;;;;5019380;28;20117;-74
2021/06/24 10:58:02;;;;;;;2.80;0.17;;;21.20;86.30;;;;;;5018609;28;20096;-74
2021/06/24 11:00:35;;;;;;;2.65;0.77;;;21.60;84.80;;;;;;5019065;28;20041;-74
2021/06/24 11:03:08;;;;;;;1.27;0.20;;;21.20;86.80;;;;;;5018876;28;20026;-74
2021/06/24 11:05:38;;;;;;;1.88;0.65;;;21.50;89.30;;;;;;5001058;28;20022;-74
2021/06/24 11:08:16;;;;;;;6.43;0.55;;;21.50;83.70;;;;;;5018235;28;20026;-76
2021/06/24 11:10:51;;;;;;;;;;;21.70;87.00;;;;;;5017534;28;20037;-74
2021/06/24 11:16:21;;;;;;;0.52;0.20;;;22.50;82.50;;;;;;5017164;28;20029;-74
2021/06/24 11:18:53;;;;;;;3.60;1.58;;;22.60;78.50;;;;;;5017200;28;20042;-74
2021/06/24 11:21:41;;;;;;;0.77;0.40;;;23.00;82.80;;;;;;5016849;28;20026;-74
2021/06/24 11:24:07;;;;;;;;;;;23.00;78.50;;;;;;5017575;28;20045;-74
2021/06/24 11:26:35;;;;;;;2.65;0.32;;;23.10;81.90;;;;;;4999666;28;20357;-75
2021/06/24 11:29:25;;;;;;;2.53;0.20;;;23.20;81.90;;;;;;4999498;28;20025;-75
2021/06/24 11:37:05;;;;;;;4.03;0.20;;;23.70;76.30;;;;;;5017510;28;20034;-74
2021/06/24 11:39:37;;;;;;;1.40;0.10;;;23.30;73.10;;;;;;4999216;28;20014;-74
2021/06/24 11:42:10;;;;;;;0.68;0.20;;;23.20;76.00;;;;;;5017101;28;20104;-74
2021/06/24 11:44:38;;;;;;;0.90;0.30;;;23.00;74.70;;;;;;5016689;28;20022;-74
2021/06/24 11:47:08;;;;;;;2.80;0.40;;;22.90;76.80;;;;;;5018206;28;20459;-75
2021/06/24 12:04:04;;;;;;;1.00;0.30;;;23.70;71.50;;;;;;5014502;28;20032;-75
2021/06/24 12:07:08;;;;;;;2.78;0.20;;;23.50;72.70;;;;;;4996519;28;20022;-75
2021/06/24 12:09:43;;;;;;;0.73;0.50;;;23.20;73.00;;;;;;4999091;28;20467;-76
2021/06/24 12:12:16;;;;;;;1.30;0.10;;;23.40;73.30;;;;;;4996525;28;20069;-74
2021/06/24 12:14:44;;;;;;;2.30;0.20;;;23.40;75.40;;;;;;4996631;28;20028;-75
2021/06/24 12:17:20;;;;;;;1.58;0.40;;;23.50;76.50;;;;;;4996543;28;20360;-74
2021/06/24 12:20:04;;;;;;;3.65;0.52;;;23.60;71.10;;;;;;5013914;28;20445;-74
2021/06/24 12:22:34;;;;;;;1.02;0.20;;;23.70;75.80;;;;;;5014447;28;20018;-73
2021/06/24 12:25:02;;;;;;;0.60;0.15;;;23.70;71.20;;;;;;5014352;28;20018;-74
2021/06/24 12:27:33;;;;;;;1.33;0.28;;;23.90;75.30;;;;;;5013790;28;20534;-76
2021/06/24 12:30:05;;;;;;;4.15;0.30;;;24.00;71.30;;;;;;5013929;28;20545;-77
2021/06/24 12:32:31;;;;;;;1.98;0.47;;;24.00;69.80;;;;;;5013996;28;20026;-77
2021/06/24 12:34:57;;;;;;;2.15;0.45;;;24.10;69.60;;;;;;5013966;28;20026;-77
2021/06/24 12:37:33;;;;;;;2.67;0.00;;;24.30;69.20;;;;;;4996009;28;20010;-76
2021/06/24 12:40:00;;;;;;;3.42;0.40;;;24.40;71.40;;;;;;4996131;28;20030;-77
2021/06/24 12:42:26;;;;;;;1.40;0.20;;;24.40;70.80;;;;;;5014074;28;20144;-76
2021/06/24 12:44:52;;;;;;;0.93;0.38;;;24.20;65.90;;;;;;5014054;28;20030;-77
2021/06/24 12:47:43;;;;;;;2.05;0.15;;;23.60;65.40;;;;;;4995854;28;20487;-77
2021/06/24 12:50:11;;;;;;;0.40;0.10;;;23.20;67.50;;;;;;5014005;28;20030;-77
2021/06/24 12:52:36;;;;;;;2.15;0.35;;;23.20;74.60;;;;;;5013665;28;20065;-77
2021/06/24 12:55:07;;;;;;;1.15;0.40;;;23.50;72.50;;;;;;5013897;28;20054;-78
2021/06/24 12:57:33;;;;;;;0.65;0.22;;;23.40;68.70;;;;;;5013688;28;20025;-75
2021/06/24 12:59:58;;;;;;;0.60;0.25;;;23.30;69.30;;;;;;5013411;28;20483;-75
2021/06/24 13:02:24;;;;;;;1.00;0.40;;;23.70;72.00;;;;;;5013893;28;20018;-75
2021/06/24 13:04:49;;;;;;;3.17;0.32;;;23.90;70.90;;;;;;5014493;28;20026;-75
2021/06/24 13:07:15;;;;;;;1.17;0.17;;;24.10;70.00;;;;;;4995987;28;20034;-75
2021/06/24 13:09:41;;;;;;;0.90;0.40;;;24.10;67.30;;;;;;5013547;28;20034;-75
2021/06/24 13:12:09;;;;;;;2.10;0.20;;;24.20;70.20;;;;;;4995776;28;20391;-75